sensor_id;sensor_type;location;lat;lon;timestamp;temperature;humidity
21612;DHT22;47005;52.292;13.452;2022-09-13T00:00:38;14.70;99.90
21612;DHT22;47005;52.292;13.452;2022-09-13T00:03:05;14.70;99.90
21612;DHT22;47005;52.292;13.452;2022-09-13T00:05:30;14.70;99.90
21612;DHT22;47005;52.292;13.452;2022-09-13T00:07:57;14.70;99.90
21612;DHT22;47005;52.292;13.452;2022-09-13T00:10:23;14.70;99.90
21612;DHT22;47005;52.292;13.452;2022-09-13T00:12:49;14.70;99.90
21612;DHT22;47005;52.292;13.452;2022-09-13T00:15:14;14.60;99.90
21612;DHT22;47005;52.292;13.452;2022-09-13T00:17:40;14.60;99.90
21612;DHT22;47005;52.292;13.452;2022-09-13T00:20:06;14.60;99.90
21612;DHT22;47005;52.292;13.452;2022-09-13T00:22:33;14.60;99.90
21612;DHT22;47005;52.292;13.452;2022-09-13T00:24:58;14.60;99.90
21612;DHT22;47005;52.292;13.452;2022-09-13T00:27:24;14.60;99.90
21612;DHT22;47005;52.292;13.452;2022-09-13T00:29:49;14.60;99.90
21612;DHT22;47005;52.292;13.452;2022-09-13T00:32:16;14.60;99.90
21612;DHT22;47005;52.292;13.452;2022-09-13T00:34:41;14.50;99.90
21612;DHT22;47005;52.292;13.452;2022-09-13T00:37:07;14.50;99.90
21612;DHT22;47005;52.292;13.452;2022-09-13T00:39:33;14.60;99.90
21612;DHT22;47005;52.292;13.452;2022-09-13T00:41:59;14.50;99.90
21612;DHT22;47005;52.292;13.452;2022-09-13T00:47:47;14.50;99.90
21612;DHT22;47005;52.292;13.452;2022-09-13T00:52:49;14.50;99.90
21612;DHT22;47005;52.292;13.452;2022-09-13T00:55:24;14.40;99.90
21612;DHT22;47005;52.292;13.452;2022-09-13T00:57:52;14.40;99.90
21612;DHT22;47005;52.292;13.452;2022-09-13T01:00:19;14.40;99.90
21612;DHT22;47005;52.292;13.452;2022-09-13T01:02:57;14.40;99.90
21612;DHT22;47005;52.292;13.452;2022-09-13T01:05:28;14.40;99.90
21612;DHT22;47005;52.292;13.452;2022-09-13T01:07:55;14.40;99.90
21612;DHT22;47005;52.292;13.452;2022-09-13T01:10:21;14.40;99.90
21612;DHT22;47005;52.292;13.452;2022-09-13T01:13:00;14.40;99.90
21612;DHT22;47005;52.292;13.452;2022-09-13T01:15:29;14.30;99.90
21612;DHT22;47005;52.292;13.452;2022-09-13T01:17:55;14.30;99.90
21612;DHT22;47005;52.292;13.452;2022-09-13T01:20:27;14.30;99.90
21612;DHT22;47005;52.292;13.452;2022-09-13T01:26:12;14.30;99.90
21612;DHT22;47005;52.292;13.452;2022-09-13T01:29:08;14.30;99.90
21612;DHT22;47005;52.292;13.452;2022-09-13T01:45:46;14.10;99.90
21612;DHT22;47005;52.292;13.452;2022-09-13T01:48:29;14.10;99.90
21612;DHT22;47005;52.292;13.452;2022-09-13T01:51:10;14.10;99.90
21612;DHT22;47005;52.292;13.452;2022-09-13T01:56:32;14.10;99.90
21612;DHT22;47005;52.292;13.452;2022-09-13T02:01:48;14.10;99.90
21612;DHT22;47005;52.292;13.452;2022-09-13T02:04:20;14.00;99.90
21612;DHT22;47005;52.292;13.452;2022-09-13T02:06:52;14.00;99.90
21612;DHT22;47005;52.292;13.452;2022-09-13T02:09:24;14.00;99.90
21612;DHT22;47005;52.292;13.452;2022-09-13T02:11:58;14.00;99.90
21612;DHT22;47005;52.292;13.452;2022-09-13T02:14:49;14.00;99.90
21612;DHT22;47005;52.292;13.452;2022-09-13T02:17:19;13.90;99.90
21612;DHT22;47005;52.292;13.452;2022-09-13T02:20:16;14.00;99.90
21612;DHT22;47005;52.292;13.452;2022-09-13T02:22:46;14.00;99.90
21612;DHT22;47005;52.292;13.452;2022-09-13T02:25:14;14.00;99.90
21612;DHT22;47005;52.292;13.452;2022-09-13T02:27:47;14.00;99.90
21612;DHT22;47005;52.292;13.452;2022-09-13T02:30:14;13.90;99.90
21612;DHT22;47005;52.292;13.452;2022-09-13T02:32:48;13.90;99.90
21612;DHT22;47005;52.292;13.452;2022-09-13T02:35:23;13.90;99.90
21612;DHT22;47005;52.292;13.452;2022-09-13T02:38:19;13.90;99.90
21612;DHT22;47005;52.292;13.452;2022-09-13T02:41:24;13.90;99.90
21612;DHT22;47005;52.292;13.452;2022-09-13T02:44:30;13.90;99.90
21612;DHT22;47005;52.292;13.452;2022-09-13T02:53:06;13.80;99.90
21612;DHT22;47005;52.292;13.452;2022-09-13T02:58:43;13.80;99.90
21612;DHT22;47005;52.292;13.452;2022-09-13T03:01:09;13.80;99.90
21612;DHT22;47005;52.292;13.452;2022-09-13T03:03:35;13.80;99.90
21612;DHT22;47005;52.292;13.452;2022-09-13T03:06:01;13.80;99.90
21612;DHT22;47005;52.292;13.452;2022-09-13T03:08:27;13.80;99.90
21612;DHT22;47005;52.292;13.452;2022-09-13T03:11:17;13.80;99.90
21612;DHT22;47005;52.292;13.452;2022-09-13T03:25:14;13.70;99.90
21612;DHT22;47005;52.292;13.452;2022-09-13T03:27:51;13.80;99.90
21612;DHT22;47005;52.292;13.452;2022-09-13T03:30:18;13.70;99.90
21612;DHT22;47005;52.292;13.452;2022-09-13T03:38:07;13.80;99.90
21612;DHT22;47005;52.292;13.452;2022-09-13T03:43:18;13.70;99.90
21612;DHT22;47005;52.292;13.452;2022-09-13T03:45:53;13.60;99.90
21612;DHT22;47005;52.292;13.452;2022-09-13T03:48:21;13.80;99.90
21612;DHT22;47005;52.292;13.452;2022-09-13T03:50:47;13.70;99.90
21612;DHT22;47005;52.292;13.452;2022-09-13T03:53:19;13.70;99.90
21612;DHT22;47005;52.292;13.452;2022-09-13T03:55:45;13.70;99.90
21612;DHT22;47005;52.292;13.452;2022-09-13T03:58:12;13.70;99.90
21612;DHT22;47005;52.292;13.452;2022-09-13T04:00:38;13.70;99.90
21612;DHT22;47005;52.292;13.452;2022-09-13T04:03:05;13.70;99.90
21612;DHT22;47005;52.292;13.452;2022-09-13T04:05:31;13.60;99.90
21612;DHT22;47005;52.292;13.452;2022-09-13T04:07:58;13.70;99.90
21612;DHT22;47005;52.292;13.452;2022-09-13T04:10:24;13.70;99.90
21612;DHT22;47005;52.292;13.452;2022-09-13T04:12:49;13.70;99.90
21612;DHT22;47005;52.292;13.452;2022-09-13T04:15:16;13.70;99.90
21612;DHT22;47005;52.292;13.452;2022-09-13T04:17:41;13.70;99.90
21612;DHT22;47005;52.292;13.452;2022-09-13T04:20:07;13.60;99.90
21612;DHT22;47005;52.292;13.452;2022-09-13T04:22:32;13.70;99.90
21612;DHT22;47005;52.292;13.452;2022-09-13T04:24:59;13.60;99.90
21612;DHT22;47005;52.292;13.452;2022-09-13T04:27:24;13.60;99.90
21612;DHT22;47005;52.292;13.452;2022-09-13T04:29:50;13.60;99.90
21612;DHT22;47005;52.292;13.452;2022-09-13T04:32:16;13.60;99.90
21612;DHT22;47005;52.292;13.452;2022-09-13T04:34:41;13.60;99.90
21612;DHT22;47005;52.292;13.452;2022-09-13T04:37:07;13.60;99.90
21612;DHT22;47005;52.292;13.452;2022-09-13T04:39:33;13.60;99.90
21612;DHT22;47005;52.292;13.452;2022-09-13T04:41:59;13.60;99.90
21612;DHT22;47005;52.292;13.452;2022-09-13T04:44:24;13.60;99.90
21612;DHT22;47005;52.292;13.452;2022-09-13T04:46:50;13.60;99.90
21612;DHT22;47005;52.292;13.452;2022-09-13T04:49:16;13.70;99.90
21612;DHT22;47005;52.292;13.452;2022-09-13T04:51:42;13.60;99.90
21612;DHT22;47005;52.292;13.452;2022-09-13T04:54:09;13.60;99.90
21612;DHT22;47005;52.292;13.452;2022-09-13T04:56:35;13.60;99.90
21612;DHT22;47005;52.292;13.452;2022-09-13T04:59:00;13.60;99.90
21612;DHT22;47005;52.292;13.452;2022-09-13T05:01:26;13.70;99.90
21612;DHT22;47005;52.292;13.452;2022-09-13T05:03:52;13.60;99.90
21612;DHT22;47005;52.292;13.452;2022-09-13T05:06:18;13.70;99.90
21612;DHT22;47005;52.292;13.452;2022-09-13T05:08:50;13.70;99.90
21612;DHT22;47005;52.292;13.452;2022-09-13T05:11:16;13.70;99.90
21612;DHT22;47005;52.292;13.452;2022-09-13T05:13:42;13.70;99.90
21612;DHT22;47005;52.292;13.452;2022-09-13T05:16:08;13.70;99.90
21612;DHT22;47005;52.292;13.452;2022-09-13T05:18:35;13.70;99.90
21612;DHT22;47005;52.292;13.452;2022-09-13T05:21:03;13.70;99.90
21612;DHT22;47005;52.292;13.452;2022-09-13T05:23:30;13.70;99.90
21612;DHT22;47005;52.292;13.452;2022-09-13T05:25:58;13.70;99.90
21612;DHT22;47005;52.292;13.452;2022-09-13T05:28:25;13.80;99.90
21612;DHT22;47005;52.292;13.452;2022-09-13T05:30:59;13.80;99.90
21612;DHT22;47005;52.292;13.452;2022-09-13T05:33:28;13.80;99.90
21612;DHT22;47005;52.292;13.452;2022-09-13T05:35:54;13.80;99.90
21612;DHT22;47005;52.292;13.452;2022-09-13T05:38:20;13.80;99.90
21612;DHT22;47005;52.292;13.452;2022-09-13T05:40:46;13.80;99.90
21612;DHT22;47005;52.292;13.452;2022-09-13T05:43:12;13.90;99.90
21612;DHT22;47005;52.292;13.452;2022-09-13T05:45:38;13.90;99.90
21612;DHT22;47005;52.292;13.452;2022-09-13T05:48:04;13.90;99.90
21612;DHT22;47005;52.292;13.452;2022-09-13T05:50:29;13.90;99.90
21612;DHT22;47005;52.292;13.452;2022-09-13T05:52:56;14.00;99.90
21612;DHT22;47005;52.292;13.452;2022-09-13T05:55:22;14.00;99.90
21612;DHT22;47005;52.292;13.452;2022-09-13T05:57:48;14.00;99.90
21612;DHT22;47005;52.292;13.452;2022-09-13T06:00:15;14.00;99.90
21612;DHT22;47005;52.292;13.452;2022-09-13T06:02:41;14.00;99.90
21612;DHT22;47005;52.292;13.452;2022-09-13T06:05:10;14.00;99.90
21612;DHT22;47005;52.292;13.452;2022-09-13T06:07:38;14.00;99.90
21612;DHT22;47005;52.292;13.452;2022-09-13T06:10:06;14.00;99.90
21612;DHT22;47005;52.292;13.452;2022-09-13T06:12:32;14.10;99.90
21612;DHT22;47005;52.292;13.452;2022-09-13T06:14:58;14.10;99.90
21612;DHT22;47005;52.292;13.452;2022-09-13T06:17:23;14.10;99.90
21612;DHT22;47005;52.292;13.452;2022-09-13T06:19:50;14.10;99.90
21612;DHT22;47005;52.292;13.452;2022-09-13T06:22:15;14.10;99.90
21612;DHT22;47005;52.292;13.452;2022-09-13T06:24:41;14.10;99.90
21612;DHT22;47005;52.292;13.452;2022-09-13T06:27:06;14.10;99.90
21612;DHT22;47005;52.292;13.452;2022-09-13T06:29:32;14.10;99.90
21612;DHT22;47005;52.292;13.452;2022-09-13T06:31:57;14.00;99.90
21612;DHT22;47005;52.292;13.452;2022-09-13T06:34:23;14.10;99.90
21612;DHT22;47005;52.292;13.452;2022-09-13T06:36:49;14.10;99.90
21612;DHT22;47005;52.292;13.452;2022-09-13T06:39:14;14.10;99.90
21612;DHT22;47005;52.292;13.452;2022-09-13T06:41:40;14.10;99.90
21612;DHT22;47005;52.292;13.452;2022-09-13T06:44:05;14.10;99.90
21612;DHT22;47005;52.292;13.452;2022-09-13T06:46:33;14.10;99.90
21612;DHT22;47005;52.292;13.452;2022-09-13T06:49:00;14.10;99.90
21612;DHT22;47005;52.292;13.452;2022-09-13T06:51:26;14.10;99.90
21612;DHT22;47005;52.292;13.452;2022-09-13T06:53:54;14.10;99.90
21612;DHT22;47005;52.292;13.452;2022-09-13T06:56:31;14.10;99.90
21612;DHT22;47005;52.292;13.452;2022-09-13T06:58:59;14.20;99.90
21612;DHT22;47005;52.292;13.452;2022-09-13T07:01:28;14.20;99.90
21612;DHT22;47005;52.292;13.452;2022-09-13T07:03:58;14.20;99.90
21612;DHT22;47005;52.292;13.452;2022-09-13T07:06:28;14.20;99.90
21612;DHT22;47005;52.292;13.452;2022-09-13T07:08:57;14.20;99.90
21612;DHT22;47005;52.292;13.452;2022-09-13T07:11:25;14.20;99.90
21612;DHT22;47005;52.292;13.452;2022-09-13T07:13:53;14.20;99.90
21612;DHT22;47005;52.292;13.452;2022-09-13T07:16:21;14.20;99.90
21612;DHT22;47005;52.292;13.452;2022-09-13T07:18:54;14.30;99.90
21612;DHT22;47005;52.292;13.452;2022-09-13T07:21:21;14.30;99.90
21612;DHT22;47005;52.292;13.452;2022-09-13T07:23:47;14.30;99.90
21612;DHT22;47005;52.292;13.452;2022-09-13T07:26:13;14.30;99.90
21612;DHT22;47005;52.292;13.452;2022-09-13T07:28:40;14.30;99.90
21612;DHT22;47005;52.292;13.452;2022-09-13T07:31:09;14.40;99.90
21612;DHT22;47005;52.292;13.452;2022-09-13T07:33:36;14.40;99.90
21612;DHT22;47005;52.292;13.452;2022-09-13T07:36:03;14.40;99.90
21612;DHT22;47005;52.292;13.452;2022-09-13T07:38:32;14.40;99.90
21612;DHT22;47005;52.292;13.452;2022-09-13T07:40:58;14.50;99.90
21612;DHT22;47005;52.292;13.452;2022-09-13T07:43:24;14.50;99.90
21612;DHT22;47005;52.292;13.452;2022-09-13T07:46:04;14.50;99.90
21612;DHT22;47005;52.292;13.452;2022-09-13T07:48:33;14.60;99.90
21612;DHT22;47005;52.292;13.452;2022-09-13T07:53:36;14.60;99.90
21612;DHT22;47005;52.292;13.452;2022-09-13T07:56:08;14.60;99.90
21612;DHT22;47005;52.292;13.452;2022-09-13T07:58:35;14.60;99.90
21612;DHT22;47005;52.292;13.452;2022-09-13T08:01:18;14.70;99.90
21612;DHT22;47005;52.292;13.452;2022-09-13T08:03:50;14.70;99.90
21612;DHT22;47005;52.292;13.452;2022-09-13T08:06:16;14.70;99.90
21612;DHT22;47005;52.292;13.452;2022-09-13T08:08:41;14.70;99.90
21612;DHT22;47005;52.292;13.452;2022-09-13T08:11:07;14.80;99.90
21612;DHT22;47005;52.292;13.452;2022-09-13T08:13:33;14.80;99.90
21612;DHT22;47005;52.292;13.452;2022-09-13T08:16:03;14.80;99.90
21612;DHT22;47005;52.292;13.452;2022-09-13T08:18:29;14.80;99.90
21612;DHT22;47005;52.292;13.452;2022-09-13T08:20:56;14.90;99.90
21612;DHT22;47005;52.292;13.452;2022-09-13T08:23:22;14.90;99.90
21612;DHT22;47005;52.292;13.452;2022-09-13T08:25:48;14.90;99.90
21612;DHT22;47005;52.292;13.452;2022-09-13T08:28:15;14.90;99.90
21612;DHT22;47005;52.292;13.452;2022-09-13T08:30:42;15.00;99.90
21612;DHT22;47005;52.292;13.452;2022-09-13T08:33:12;15.00;99.90
21612;DHT22;47005;52.292;13.452;2022-09-13T08:35:38;15.00;99.90
21612;DHT22;47005;52.292;13.452;2022-09-13T08:38:05;15.00;99.90
21612;DHT22;47005;52.292;13.452;2022-09-13T08:40:39;15.10;99.90
21612;DHT22;47005;52.292;13.452;2022-09-13T08:46:08;15.10;99.90
21612;DHT22;47005;52.292;13.452;2022-09-13T08:48:39;15.20;99.90
21612;DHT22;47005;52.292;13.452;2022-09-13T08:51:22;15.10;99.90
21612;DHT22;47005;52.292;13.452;2022-09-13T08:53:49;15.20;99.90
21612;DHT22;47005;52.292;13.452;2022-09-13T09:04:53;15.30;99.90
21612;DHT22;47005;52.292;13.452;2022-09-13T09:07:26;15.30;99.90
21612;DHT22;47005;52.292;13.452;2022-09-13T09:12:38;15.40;99.90
21612;DHT22;47005;52.292;13.452;2022-09-13T09:15:15;15.40;99.90
21612;DHT22;47005;52.292;13.452;2022-09-13T09:20:39;15.50;99.90
21612;DHT22;47005;52.292;13.452;2022-09-13T09:23:13;15.60;99.90
21612;DHT22;47005;52.292;13.452;2022-09-13T09:25:40;15.60;99.90
21612;DHT22;47005;52.292;13.452;2022-09-13T09:28:16;15.70;99.90
21612;DHT22;47005;52.292;13.452;2022-09-13T09:36:07;15.80;99.90
21612;DHT22;47005;52.292;13.452;2022-09-13T09:38:41;15.90;99.90
21612;DHT22;47005;52.292;13.452;2022-09-13T09:41:29;15.90;99.90
21612;DHT22;47005;52.292;13.452;2022-09-13T09:46:27;16.00;99.90
21612;DHT22;47005;52.292;13.452;2022-09-13T09:49:01;16.10;99.90
21612;DHT22;47005;52.292;13.452;2022-09-13T09:51:49;16.10;99.90
21612;DHT22;47005;52.292;13.452;2022-09-13T09:54:16;16.20;99.90
21612;DHT22;47005;52.292;13.452;2022-09-13T09:56:52;16.30;99.90
21612;DHT22;47005;52.292;13.452;2022-09-13T09:59:27;16.30;99.90
21612;DHT22;47005;52.292;13.452;2022-09-13T10:01:54;16.30;99.90
21612;DHT22;47005;52.292;13.452;2022-09-13T10:04:22;16.40;99.90
21612;DHT22;47005;52.292;13.452;2022-09-13T10:06:48;16.50;99.90
21612;DHT22;47005;52.292;13.452;2022-09-13T10:09:19;16.50;99.90
21612;DHT22;47005;52.292;13.452;2022-09-13T10:11:51;16.50;99.90
21612;DHT22;47005;52.292;13.452;2022-09-13T10:14:37;16.60;99.90
21612;DHT22;47005;52.292;13.452;2022-09-13T10:17:25;16.70;99.90
21612;DHT22;47005;52.292;13.452;2022-09-13T10:20:14;16.70;99.90
21612;DHT22;47005;52.292;13.452;2022-09-13T10:25:54;16.80;99.90
21612;DHT22;47005;52.292;13.452;2022-09-13T10:28:22;16.80;99.90
21612;DHT22;47005;52.292;13.452;2022-09-13T10:33:42;16.90;99.90
21612;DHT22;47005;52.292;13.452;2022-09-13T10:36:20;16.90;99.90
21612;DHT22;47005;52.292;13.452;2022-09-13T10:39:07;17.00;99.90
21612;DHT22;47005;52.292;13.452;2022-09-13T10:41:39;17.00;99.90
21612;DHT22;47005;52.292;13.452;2022-09-13T10:46:49;17.10;99.90
21612;DHT22;47005;52.292;13.452;2022-09-13T10:49:45;17.20;99.90
21612;DHT22;47005;52.292;13.452;2022-09-13T10:52:34;17.20;99.90
21612;DHT22;47005;52.292;13.452;2022-09-13T11:12:45;17.50;99.90
21612;DHT22;47005;52.292;13.452;2022-09-13T11:18:33;17.60;99.90
21612;DHT22;47005;52.292;13.452;2022-09-13T11:24:26;17.60;99.90
21612;DHT22;47005;52.292;13.452;2022-09-13T11:30:08;17.70;99.90
21612;DHT22;47005;52.292;13.452;2022-09-13T11:35:28;17.70;99.90
21612;DHT22;47005;52.292;13.452;2022-09-13T11:41:30;17.70;99.90
21612;DHT22;47005;52.292;13.452;2022-09-13T11:49:31;17.80;99.90
21612;DHT22;47005;52.292;13.452;2022-09-13T11:51:47;17.80;99.90
21612;DHT22;47005;52.292;13.452;2022-09-13T11:57:23;17.80;99.90
21612;DHT22;47005;52.292;13.452;2022-09-13T11:59:56;17.80;99.90
21612;DHT22;47005;52.292;13.452;2022-09-13T12:07:49;17.80;99.90
21612;DHT22;47005;52.292;13.452;2022-09-13T12:10:51;17.80;99.90
21612;DHT22;47005;52.292;13.452;2022-09-13T12:13:24;17.80;99.90
21612;DHT22;47005;52.292;13.452;2022-09-13T12:15:59;17.80;99.90
21612;DHT22;47005;52.292;13.452;2022-09-13T12:18:36;17.80;99.90
21612;DHT22;47005;52.292;13.452;2022-09-13T12:21:15;17.80;99.90
21612;DHT22;47005;52.292;13.452;2022-09-13T12:29:30;17.80;99.90
21612;DHT22;47005;52.292;13.452;2022-09-13T12:32:01;17.80;99.90
21612;DHT22;47005;52.292;13.452;2022-09-13T12:34:48;17.80;99.90
21612;DHT22;47005;52.292;13.452;2022-09-13T12:39:47;17.90;99.90
21612;DHT22;47005;52.292;13.452;2022-09-13T12:48:08;17.90;99.90
21612;DHT22;47005;52.292;13.452;2022-09-13T13:01:23;18.00;99.90
21612;DHT22;47005;52.292;13.452;2022-09-13T13:03:53;18.00;99.90
21612;DHT22;47005;52.292;13.452;2022-09-13T13:08:56;18.10;99.90
21612;DHT22;47005;52.292;13.452;2022-09-13T13:11:27;18.00;99.90
21612;DHT22;47005;52.292;13.452;2022-09-13T13:14:02;18.00;99.90
21612;DHT22;47005;52.292;13.452;2022-09-13T13:16:38;18.10;99.90
21612;DHT22;47005;52.292;13.452;2022-09-13T13:19:31;18.10;99.90
21612;DHT22;47005;52.292;13.452;2022-09-13T13:25:33;18.20;99.90
21612;DHT22;47005;52.292;13.452;2022-09-13T13:28:02;18.10;99.90
21612;DHT22;47005;52.292;13.452;2022-09-13T13:33:25;18.20;99.90
21612;DHT22;47005;52.292;13.452;2022-09-13T13:35:52;18.20;99.90
21612;DHT22;47005;52.292;13.452;2022-09-13T13:38:37;18.30;99.90
21612;DHT22;47005;52.292;13.452;2022-09-13T13:57:33;18.30;99.90
21612;DHT22;47005;52.292;13.452;2022-09-13T14:10:37;18.50;99.90
21612;DHT22;47005;52.292;13.452;2022-09-13T14:13:33;18.50;99.90
21612;DHT22;47005;52.292;13.452;2022-09-13T14:24:39;18.50;99.90
21612;DHT22;47005;52.292;13.452;2022-09-13T14:27:16;18.50;99.90
21612;DHT22;47005;52.292;13.452;2022-09-13T14:32:47;18.60;99.90
21612;DHT22;47005;52.292;13.452;2022-09-13T14:35:35;18.50;99.90
21612;DHT22;47005;52.292;13.452;2022-09-13T14:38:23;18.60;99.90
21612;DHT22;47005;52.292;13.452;2022-09-13T14:43:28;18.60;99.90
21612;DHT22;47005;52.292;13.452;2022-09-13T14:46:36;18.60;99.90
21612;DHT22;47005;52.292;13.452;2022-09-13T14:49:08;18.60;99.90
21612;DHT22;47005;52.292;13.452;2022-09-13T14:52:14;18.60;99.90
21612;DHT22;47005;52.292;13.452;2022-09-13T14:54:46;18.70;99.90
21612;DHT22;47005;52.292;13.452;2022-09-13T14:58:05;18.70;99.90
21612;DHT22;47005;52.292;13.452;2022-09-13T15:00:15;18.70;99.90
21612;DHT22;47005;52.292;13.452;2022-09-13T15:02:47;18.70;99.90
21612;DHT22;47005;52.292;13.452;2022-09-13T15:05:16;18.70;99.90
21612;DHT22;47005;52.292;13.452;2022-09-13T15:07:42;18.80;99.90
21612;DHT22;47005;52.292;13.452;2022-09-13T15:20:22;18.90;99.90
21612;DHT22;47005;52.292;13.452;2022-09-13T15:22:48;18.90;99.90
21612;DHT22;47005;52.292;13.452;2022-09-13T15:25:26;18.90;99.90
21612;DHT22;47005;52.292;13.452;2022-09-13T15:27:57;18.90;99.90
21612;DHT22;47005;52.292;13.452;2022-09-13T15:35:41;19.00;99.90
21612;DHT22;47005;52.292;13.452;2022-09-13T15:38:27;19.00;99.90
21612;DHT22;47005;52.292;13.452;2022-09-13T15:43:26;19.00;99.90
21612;DHT22;47005;52.292;13.452;2022-09-13T15:45:52;19.00;99.90
21612;DHT22;47005;52.292;13.452;2022-09-13T15:48:30;19.00;99.90
21612;DHT22;47005;52.292;13.452;2022-09-13T15:51:08;19.00;99.90
21612;DHT22;47005;52.292;13.452;2022-09-13T15:53:35;19.00;99.90
21612;DHT22;47005;52.292;13.452;2022-09-13T15:56:02;19.00;99.90
21612;DHT22;47005;52.292;13.452;2022-09-13T15:58:29;19.00;99.90
21612;DHT22;47005;52.292;13.452;2022-09-13T16:00:54;19.00;99.90
21612;DHT22;47005;52.292;13.452;2022-09-13T16:03:23;19.00;99.90
21612;DHT22;47005;52.292;13.452;2022-09-13T16:05:49;19.00;99.90
21612;DHT22;47005;52.292;13.452;2022-09-13T16:08:14;19.00;99.90
21612;DHT22;47005;52.292;13.452;2022-09-13T16:10:40;18.90;99.90
21612;DHT22;47005;52.292;13.452;2022-09-13T16:13:06;18.90;99.90
21612;DHT22;47005;52.292;13.452;2022-09-13T16:15:31;18.90;99.90
21612;DHT22;47005;52.292;13.452;2022-09-13T16:17:57;18.90;99.90
21612;DHT22;47005;52.292;13.452;2022-09-13T16:20:23;18.90;99.90
21612;DHT22;47005;52.292;13.452;2022-09-13T16:22:48;18.90;99.90
21612;DHT22;47005;52.292;13.452;2022-09-13T16:25:14;18.90;99.90
21612;DHT22;47005;52.292;13.452;2022-09-13T16:27:42;18.90;99.90
21612;DHT22;47005;52.292;13.452;2022-09-13T16:30:11;18.90;99.90
21612;DHT22;47005;52.292;13.452;2022-09-13T16:32:37;18.90;99.90
21612;DHT22;47005;52.292;13.452;2022-09-13T16:35:03;18.80;99.90
21612;DHT22;47005;52.292;13.452;2022-09-13T16:37:28;18.80;99.90
21612;DHT22;47005;52.292;13.452;2022-09-13T16:39:57;18.80;99.90
21612;DHT22;47005;52.292;13.452;2022-09-13T16:42:23;18.80;99.90
21612;DHT22;47005;52.292;13.452;2022-09-13T16:44:48;18.70;99.90
21612;DHT22;47005;52.292;13.452;2022-09-13T16:47:14;18.70;99.90
21612;DHT22;47005;52.292;13.452;2022-09-13T16:49:40;18.70;99.90
21612;DHT22;47005;52.292;13.452;2022-09-13T16:52:06;18.70;99.90
21612;DHT22;47005;52.292;13.452;2022-09-13T16:54:33;18.70;99.90
21612;DHT22;47005;52.292;13.452;2022-09-13T16:57:00;18.60;99.90
21612;DHT22;47005;52.292;13.452;2022-09-13T16:59:26;18.60;99.90
21612;DHT22;47005;52.292;13.452;2022-09-13T17:01:51;18.60;99.90
21612;DHT22;47005;52.292;13.452;2022-09-13T17:04:17;18.50;99.90
21612;DHT22;47005;52.292;13.452;2022-09-13T17:06:43;18.50;99.90
21612;DHT22;47005;52.292;13.452;2022-09-13T17:09:09;18.50;99.90
21612;DHT22;47005;52.292;13.452;2022-09-13T17:11:37;18.50;99.90
21612;DHT22;47005;52.292;13.452;2022-09-13T17:14:05;18.50;99.90
21612;DHT22;47005;52.292;13.452;2022-09-13T17:16:38;18.40;99.90
21612;DHT22;47005;52.292;13.452;2022-09-13T17:19:09;18.40;99.90
21612;DHT22;47005;52.292;13.452;2022-09-13T17:21:35;18.40;99.90
21612;DHT22;47005;52.292;13.452;2022-09-13T17:24:02;18.40;99.90
21612;DHT22;47005;52.292;13.452;2022-09-13T17:26:27;18.40;99.90
21612;DHT22;47005;52.292;13.452;2022-09-13T17:28:53;18.40;99.90
21612;DHT22;47005;52.292;13.452;2022-09-13T17:31:19;18.30;99.90
21612;DHT22;47005;52.292;13.452;2022-09-13T17:33:45;18.30;99.90
21612;DHT22;47005;52.292;13.452;2022-09-13T17:36:13;18.30;99.90
21612;DHT22;47005;52.292;13.452;2022-09-13T17:38:39;18.30;99.90
21612;DHT22;47005;52.292;13.452;2022-09-13T17:43:39;18.20;99.90
21612;DHT22;47005;52.292;13.452;2022-09-13T17:46:13;18.20;99.90
21612;DHT22;47005;52.292;13.452;2022-09-13T17:48:40;18.20;99.90
21612;DHT22;47005;52.292;13.452;2022-09-13T17:51:10;18.10;99.90
21612;DHT22;47005;52.292;13.452;2022-09-13T17:53:41;18.10;99.90
21612;DHT22;47005;52.292;13.452;2022-09-13T17:56:08;18.10;99.90
21612;DHT22;47005;52.292;13.452;2022-09-13T17:58:34;18.00;99.90
21612;DHT22;47005;52.292;13.452;2022-09-13T18:01:09;18.00;99.90
21612;DHT22;47005;52.292;13.452;2022-09-13T18:03:35;18.00;99.90
21612;DHT22;47005;52.292;13.452;2022-09-13T18:06:04;17.90;99.90
21612;DHT22;47005;52.292;13.452;2022-09-13T18:08:31;17.90;99.90
21612;DHT22;47005;52.292;13.452;2022-09-13T18:11:06;17.80;99.90
21612;DHT22;47005;52.292;13.452;2022-09-13T18:13:33;17.80;99.90
21612;DHT22;47005;52.292;13.452;2022-09-13T18:16:18;17.80;99.90
21612;DHT22;47005;52.292;13.452;2022-09-13T18:18:44;17.80;99.90
21612;DHT22;47005;52.292;13.452;2022-09-13T18:21:11;17.80;99.90
21612;DHT22;47005;52.292;13.452;2022-09-13T18:23:39;17.70;99.90
21612;DHT22;47005;52.292;13.452;2022-09-13T18:26:10;17.70;99.90
21612;DHT22;47005;52.292;13.452;2022-09-13T18:28:36;17.70;99.90
21612;DHT22;47005;52.292;13.452;2022-09-13T18:31:05;17.70;99.90
21612;DHT22;47005;52.292;13.452;2022-09-13T18:33:31;17.60;99.90
21612;DHT22;47005;52.292;13.452;2022-09-13T18:36:01;17.60;99.90
21612;DHT22;47005;52.292;13.452;2022-09-13T18:38:35;17.60;99.90
21612;DHT22;47005;52.292;13.452;2022-09-13T18:43:36;17.60;99.90
21612;DHT22;47005;52.292;13.452;2022-09-13T18:46:05;17.50;99.90
21612;DHT22;47005;52.292;13.452;2022-09-13T18:48:39;17.50;99.90
21612;DHT22;47005;52.292;13.452;2022-09-13T18:51:08;17.50;99.90
21612;DHT22;47005;52.292;13.452;2022-09-13T18:53:35;17.50;99.90
21612;DHT22;47005;52.292;13.452;2022-09-13T18:56:05;17.40;99.90
21612;DHT22;47005;52.292;13.452;2022-09-13T18:58:32;17.40;99.90
21612;DHT22;47005;52.292;13.452;2022-09-13T19:01:00;17.50;99.90
21612;DHT22;47005;52.292;13.452;2022-09-13T19:03:25;17.40;99.90
21612;DHT22;47005;52.292;13.452;2022-09-13T19:05:51;17.40;99.90
21612;DHT22;47005;52.292;13.452;2022-09-13T19:08:17;17.40;99.90
21612;DHT22;47005;52.292;13.452;2022-09-13T19:10:43;17.30;99.90
21612;DHT22;47005;52.292;13.452;2022-09-13T19:13:08;17.30;99.90
21612;DHT22;47005;52.292;13.452;2022-09-13T19:15:34;17.30;99.90
21612;DHT22;47005;52.292;13.452;2022-09-13T19:18:00;17.30;99.90
21612;DHT22;47005;52.292;13.452;2022-09-13T19:20:26;17.30;99.90
21612;DHT22;47005;52.292;13.452;2022-09-13T19:22:52;17.30;99.90
21612;DHT22;47005;52.292;13.452;2022-09-13T19:25:18;17.30;99.90
21612;DHT22;47005;52.292;13.452;2022-09-13T19:27:45;17.30;99.90
21612;DHT22;47005;52.292;13.452;2022-09-13T19:30:11;17.30;99.90
21612;DHT22;47005;52.292;13.452;2022-09-13T19:32:37;17.20;99.90